sensor_id;sensor_type;location;lat;lon;timestamp;pressure;altitude;pressure_sealevel;temperature;humidity
37856;BME280;23694;43.274;26.924;2023-05-12T00:02:14;99431.94;;;9.19;88.17
37856;BME280;23694;43.274;26.924;2023-05-12T00:04:41;99427.44;;;9.21;88.07
37856;BME280;23694;43.274;26.924;2023-05-12T00:07:07;99429.22;;;9.20;88.90
37856;BME280;23694;43.274;26.924;2023-05-12T00:09:33;99431.59;;;9.25;88.33
37856;BME280;23694;43.274;26.924;2023-05-12T00:12:00;99431.06;;;9.34;87.73
37856;BME280;23694;43.274;26.924;2023-05-12T00:14:26;99427.63;;;9.34;87.64
37856;BME280;23694;43.274;26.924;2023-05-12T00:16:52;99429.31;;;9.35;87.26
37856;BME280;23694;43.274;26.924;2023-05-12T00:19:19;99433.00;;;9.31;87.88
37856;BME280;23694;43.274;26.924;2023-05-12T00:21:46;99424.66;;;9.40;86.98
37856;BME280;23694;43.274;26.924;2023-05-12T00:24:13;99432.34;;;9.43;86.54
37856;BME280;23694;43.274;26.924;2023-05-12T00:26:39;99413.78;;;9.32;86.98
37856;BME280;23694;43.274;26.924;2023-05-12T00:29:05;99427.34;;;9.38;87.38
37856;BME280;23694;43.274;26.924;2023-05-12T00:31:31;99436.03;;;9.39;87.43
37856;BME280;23694;43.274;26.924;2023-05-12T00:33:57;99428.47;;;9.34;87.55
37856;BME280;23694;43.274;26.924;2023-05-12T00:36:25;99430.22;;;9.34;86.95
37856;BME280;23694;43.274;26.924;2023-05-12T00:38:51;99432.00;;;9.33;87.95
37856;BME280;23694;43.274;26.924;2023-05-12T00:41:17;99420.19;;;9.10;90.21
37856;BME280;23694;43.274;26.924;2023-05-12T00:43:43;99427.78;;;9.15;89.98
37856;BME280;23694;43.274;26.924;2023-05-12T00:46:10;99428.09;;;9.09;91.28
37856;BME280;23694;43.274;26.924;2023-05-12T00:48:36;99429.53;;;8.99;92.05
37856;BME280;23694;43.274;26.924;2023-05-12T00:51:03;99431.19;;;8.84;93.08
37856;BME280;23694;43.274;26.924;2023-05-12T00:53:30;99422.50;;;8.83;93.19
37856;BME280;23694;43.274;26.924;2023-05-12T00:55:56;99425.44;;;8.77;94.41
37856;BME280;23694;43.274;26.924;2023-05-12T00:58:23;99425.78;;;8.71;95.00
37856;BME280;23694;43.274;26.924;2023-05-12T01:00:49;99431.00;;;8.71;94.76
37856;BME280;23694;43.274;26.924;2023-05-12T01:03:16;99438.81;;;8.38;96.80
37856;BME280;23694;43.274;26.924;2023-05-12T01:05:51;99429.97;;;8.41;98.41
37856;BME280;23694;43.274;26.924;2023-05-12T01:08:21;99430.38;;;8.33;98.25
37856;BME280;23694;43.274;26.924;2023-05-12T01:10:48;99436.97;;;8.40;97.87
37856;BME280;23694;43.274;26.924;2023-05-12T01:13:14;99417.00;;;8.22;98.27
37856;BME280;23694;43.274;26.924;2023-05-12T01:15:45;99424.22;;;8.34;98.69
37856;BME280;23694;43.274;26.924;2023-05-12T01:18:11;99422.06;;;8.42;97.71
37856;BME280;23694;43.274;26.924;2023-05-12T01:20:40;99431.50;;;8.45;96.94
37856;BME280;23694;43.274;26.924;2023-05-12T01:23:07;99423.59;;;8.29;98.29
37856;BME280;23694;43.274;26.924;2023-05-12T01:25:34;99427.75;;;8.16;99.37
37856;BME280;23694;43.274;26.924;2023-05-12T01:28:01;99422.47;;;8.35;98.69
37856;BME280;23694;43.274;26.924;2023-05-12T01:30:28;99422.69;;;8.47;98.25
37856;BME280;23694;43.274;26.924;2023-05-12T01:32:56;99428.13;;;8.60;96.42
37856;BME280;23694;43.274;26.924;2023-05-12T01:35:22;99421.88;;;8.63;96.94
37856;BME280;23694;43.274;26.924;2023-05-12T01:37:48;99431.69;;;8.75;95.65
37856;BME280;23694;43.274;26.924;2023-05-12T01:40:14;99422.44;;;8.85;94.44
37856;BME280;23694;43.274;26.924;2023-05-12T01:42:41;99425.13;;;8.83;94.55
37856;BME280;23694;43.274;26.924;2023-05-12T01:45:08;99425.63;;;8.90;94.35
37856;BME280;23694;43.274;26.924;2023-05-12T01:47:34;99419.56;;;8.74;94.74
37856;BME280;23694;43.274;26.924;2023-05-12T01:50:00;99420.63;;;8.70;94.78
37856;BME280;23694;43.274;26.924;2023-05-12T01:52:26;99422.59;;;8.82;93.84
37856;BME280;23694;43.274;26.924;2023-05-12T01:54:53;99419.06;;;8.83;93.85
37856;BME280;23694;43.274;26.924;2023-05-12T01:57:19;99417.03;;;8.88;93.46
37856;BME280;23694;43.274;26.924;2023-05-12T01:59:45;99411.81;;;8.88;93.18
37856;BME280;23694;43.274;26.924;2023-05-12T02:02:11;99408.28;;;8.89;93.60
37856;BME280;23694;43.274;26.924;2023-05-12T02:04:37;99416.97;;;9.05;91.88
37856;BME280;23694;43.274;26.924;2023-05-12T02:07:03;99423.19;;;9.03;91.92
37856;BME280;23694;43.274;26.924;2023-05-12T02:09:29;99413.94;;;8.97;92.38
37856;BME280;23694;43.274;26.924;2023-05-12T02:11:55;99417.72;;;8.92;93.26
37856;BME280;23694;43.274;26.924;2023-05-12T02:14:22;99420.34;;;8.92;92.88
37856;BME280;23694;43.274;26.924;2023-05-12T02:16:48;99414.44;;;8.88;93.11
37856;BME280;23694;43.274;26.924;2023-05-12T02:19:20;99404.81;;;8.88;92.84
37856;BME280;23694;43.274;26.924;2023-05-12T02:21:47;99423.53;;;8.81;92.72
37856;BME280;23694;43.274;26.924;2023-05-12T02:24:13;99418.72;;;8.73;93.46
37856;BME280;23694;43.274;26.924;2023-05-12T02:26:41;99419.72;;;8.71;94.55
37856;BME280;23694;43.274;26.924;2023-05-12T02:29:07;99405.38;;;8.62;94.33
37856;BME280;23694;43.274;26.924;2023-05-12T02:31:33;99418.44;;;8.62;95.29
37856;BME280;23694;43.274;26.924;2023-05-12T02:33:59;99411.19;;;8.67;95.40
37856;BME280;23694;43.274;26.924;2023-05-12T02:36:26;99409.50;;;8.66;95.55
37856;BME280;23694;43.274;26.924;2023-05-12T02:38:52;99408.94;;;8.77;94.07
37856;BME280;23694;43.274;26.924;2023-05-12T02:41:18;99414.09;;;8.78;93.36
37856;BME280;23694;43.274;26.924;2023-05-12T02:43:44;99417.22;;;8.85;93.83
37856;BME280;23694;43.274;26.924;2023-05-12T02:46:10;99413.06;;;8.81;93.79
37856;BME280;23694;43.274;26.924;2023-05-12T02:48:36;99407.53;;;8.87;93.74
37856;BME280;23694;43.274;26.924;2023-05-12T02:51:02;99410.38;;;8.82;93.36
37856;BME280;23694;43.274;26.924;2023-05-12T02:53:29;99417.13;;;8.86;93.44
37856;BME280;23694;43.274;26.924;2023-05-12T02:55:55;99420.66;;;8.85;94.12
37856;BME280;23694;43.274;26.924;2023-05-12T02:58:21;99412.75;;;8.87;93.79
37856;BME280;23694;43.274;26.924;2023-05-12T03:00:47;99417.63;;;8.93;93.05
37856;BME280;23694;43.274;26.924;2023-05-12T03:03:13;99414.19;;;8.93;92.57
37856;BME280;23694;43.274;26.924;2023-05-12T03:05:39;99410.63;;;8.94;94.06
37856;BME280;23694;43.274;26.924;2023-05-12T03:08:06;99425.31;;;8.96;95.53
37856;BME280;23694;43.274;26.924;2023-05-12T03:10:32;99428.25;;;9.06;94.68
37856;BME280;23694;43.274;26.924;2023-05-12T03:12:58;99434.66;;;9.00;95.39
37856;BME280;23694;43.274;26.924;2023-05-12T03:15:24;99432.56;;;9.07;94.41
37856;BME280;23694;43.274;26.924;2023-05-12T03:17:50;99431.63;;;9.08;93.43
37856;BME280;23694;43.274;26.924;2023-05-12T03:20:16;99428.19;;;9.07;93.86
37856;BME280;23694;43.274;26.924;2023-05-12T03:22:42;99424.03;;;9.03;93.64
37856;BME280;23694;43.274;26.924;2023-05-12T03:25:08;99423.97;;;9.05;93.51
37856;BME280;23694;43.274;26.924;2023-05-12T03:27:35;99424.88;;;8.88;94.12
37856;BME280;23694;43.274;26.924;2023-05-12T03:30:01;99433.06;;;8.98;95.07
37856;BME280;23694;43.274;26.924;2023-05-12T03:32:30;99437.78;;;9.07;95.17
37856;BME280;23694;43.274;26.924;2023-05-12T03:34:56;99429.06;;;9.24;94.86
37856;BME280;23694;43.274;26.924;2023-05-12T03:37:22;99439.50;;;9.24;95.09
37856;BME280;23694;43.274;26.924;2023-05-12T03:39:48;99436.38;;;9.33;94.91
37856;BME280;23694;43.274;26.924;2023-05-12T03:42:14;99437.72;;;9.40;94.23
37856;BME280;23694;43.274;26.924;2023-05-12T03:44:40;99434.59;;;9.49;94.34
37856;BME280;23694;43.274;26.924;2023-05-12T03:47:07;99442.94;;;9.56;94.22
37856;BME280;23694;43.274;26.924;2023-05-12T03:49:33;99445.72;;;9.68;93.05
37856;BME280;23694;43.274;26.924;2023-05-12T03:51:59;99445.44;;;9.73;93.21
37856;BME280;23694;43.274;26.924;2023-05-12T03:54:25;99439.63;;;9.83;92.28
37856;BME280;23694;43.274;26.924;2023-05-12T03:56:52;99442.16;;;9.85;92.50
37856;BME280;23694;43.274;26.924;2023-05-12T03:59:18;99448.53;;;9.95;92.08
37856;BME280;23694;43.274;26.924;2023-05-12T04:01:44;99450.97;;;9.98;91.71
37856;BME280;23694;43.274;26.924;2023-05-12T04:04:10;99450.63;;;10.04;91.94
37856;BME280;23694;43.274;26.924;2023-05-12T04:06:36;99455.25;;;10.15;90.67
37856;BME280;23694;43.274;26.924;2023-05-12T04:09:03;99441.50;;;10.11;89.93
37856;BME280;23694;43.274;26.924;2023-05-12T04:11:29;99461.97;;;10.19;90.36
37856;BME280;23694;43.274;26.924;2023-05-12T04:13:55;99464.75;;;10.32;90.17
37856;BME280;23694;43.274;26.924;2023-05-12T04:16:21;99460.84;;;10.39;89.97
37856;BME280;23694;43.274;26.924;2023-05-12T04:18:47;99462.75;;;10.51;89.42
37856;BME280;23694;43.274;26.924;2023-05-12T04:21:14;99466.03;;;10.69;88.26
37856;BME280;23694;43.274;26.924;2023-05-12T04:23:40;99467.72;;;10.84;86.61
37856;BME280;23694;43.274;26.924;2023-05-12T04:26:06;99464.16;;;10.85;86.83
37856;BME280;23694;43.274;26.924;2023-05-12T04:28:32;99471.66;;;10.91;86.84
37856;BME280;23694;43.274;26.924;2023-05-12T04:31:02;99471.38;;;10.96;86.23
37856;BME280;23694;43.274;26.924;2023-05-12T04:33:29;99474.75;;;10.98;85.56
37856;BME280;23694;43.274;26.924;2023-05-12T04:35:56;99477.16;;;11.01;85.33
37856;BME280;23694;43.274;26.924;2023-05-12T04:38:22;99466.78;;;10.99;85.46
37856;BME280;23694;43.274;26.924;2023-05-12T04:40:48;99469.13;;;11.04;85.05
37856;BME280;23694;43.274;26.924;2023-05-12T04:43:14;99467.44;;;10.89;85.78
37856;BME280;23694;43.274;26.924;2023-05-12T04:45:40;99467.91;;;10.95;85.32
37856;BME280;23694;43.274;26.924;2023-05-12T04:48:07;99473.44;;;10.91;85.81
37856;BME280;23694;43.274;26.924;2023-05-12T04:50:33;99470.44;;;10.97;85.90
37856;BME280;23694;43.274;26.924;2023-05-12T04:52:59;99469.59;;;10.96;85.42
37856;BME280;23694;43.274;26.924;2023-05-12T04:55:25;99472.31;;;10.95;85.68
37856;BME280;23694;43.274;26.924;2023-05-12T04:57:51;99466.03;;;10.97;85.69
37856;BME280;23694;43.274;26.924;2023-05-12T05:00:18;99476.81;;;10.78;85.78
37856;BME280;23694;43.274;26.924;2023-05-12T05:02:44;99470.16;;;10.73;87.33
37856;BME280;23694;43.274;26.924;2023-05-12T05:05:10;99471.66;;;10.77;87.81
37856;BME280;23694;43.274;26.924;2023-05-12T05:07:36;99477.84;;;10.76;87.70
37856;BME280;23694;43.274;26.924;2023-05-12T05:10:03;99476.25;;;10.73;88.34
37856;BME280;23694;43.274;26.924;2023-05-12T05:12:29;99475.41;;;10.87;87.60
37856;BME280;23694;43.274;26.924;2023-05-12T05:14:55;99472.22;;;10.96;86.70
37856;BME280;23694;43.274;26.924;2023-05-12T05:17:21;99463.97;;;11.02;85.83
37856;BME280;23694;43.274;26.924;2023-05-12T05:19:47;99474.00;;;10.96;86.09
37856;BME280;23694;43.274;26.924;2023-05-12T05:22:14;99475.50;;;11.14;85.58
37856;BME280;23694;43.274;26.924;2023-05-12T05:24:40;99474.94;;;11.23;84.85
37856;BME280;23694;43.274;26.924;2023-05-12T05:27:06;99469.09;;;11.32;84.30
37856;BME280;23694;43.274;26.924;2023-05-12T05:29:32;99479.91;;;11.55;82.71
37856;BME280;23694;43.274;26.924;2023-05-12T05:31:58;99477.75;;;11.61;81.60
37856;BME280;23694;43.274;26.924;2023-05-12T05:34:25;99479.53;;;11.61;80.30
37856;BME280;23694;43.274;26.924;2023-05-12T05:36:51;99476.75;;;11.50;79.83
37856;BME280;23694;43.274;26.924;2023-05-12T05:39:17;99492.84;;;11.58;80.30
37856;BME280;23694;43.274;26.924;2023-05-12T05:41:43;99484.66;;;11.77;79.36
37856;BME280;23694;43.274;26.924;2023-05-12T05:44:09;99486.84;;;11.97;78.78
37856;BME280;23694;43.274;26.924;2023-05-12T05:46:35;99483.63;;;12.06;78.42
37856;BME280;23694;43.274;26.924;2023-05-12T05:49:01;99491.72;;;12.03;76.84
37856;BME280;23694;43.274;26.924;2023-05-12T05:51:27;99500.38;;;11.91;76.62
37856;BME280;23694;43.274;26.924;2023-05-12T05:53:53;99494.66;;;12.11;76.19
37856;BME280;23694;43.274;26.924;2023-05-12T05:56:19;99490.78;;;12.17;74.94
37856;BME280;23694;43.274;26.924;2023-05-12T05:58:47;99496.91;;;12.30;74.72
37856;BME280;23694;43.274;26.924;2023-05-12T06:01:13;99503.84;;;12.31;74.85
37856;BME280;23694;43.274;26.924;2023-05-12T06:03:40;99500.94;;;12.35;72.29
37856;BME280;23694;43.274;26.924;2023-05-12T06:06:06;99504.06;;;12.28;73.38
37856;BME280;23694;43.274;26.924;2023-05-12T06:08:32;99494.34;;;12.43;72.65
37856;BME280;23694;43.274;26.924;2023-05-12T06:10:58;99491.72;;;12.81;71.41
37856;BME280;23694;43.274;26.924;2023-05-12T06:13:25;99497.81;;;12.81;70.74
37856;BME280;23694;43.274;26.924;2023-05-12T06:15:51;99499.81;;;12.90;70.92
37856;BME280;23694;43.274;26.924;2023-05-12T06:18:17;99490.88;;;12.80;72.11
37856;BME280;23694;43.274;26.924;2023-05-12T06:20:43;99486.03;;;12.99;71.31
37856;BME280;23694;43.274;26.924;2023-05-12T06:23:09;99493.72;;;13.28;69.62
37856;BME280;23694;43.274;26.924;2023-05-12T06:25:35;99501.22;;;13.21;68.46
37856;BME280;23694;43.274;26.924;2023-05-12T06:28:01;99495.91;;;13.47;65.60
37856;BME280;23694;43.274;26.924;2023-05-12T06:30:27;99499.75;;;13.54;64.53
37856;BME280;23694;43.274;26.924;2023-05-12T06:32:54;99496.84;;;13.46;64.87
37856;BME280;23694;43.274;26.924;2023-05-12T06:35:20;99505.91;;;13.42;63.32
37856;BME280;23694;43.274;26.924;2023-05-12T06:37:47;99507.09;;;13.25;64.18
37856;BME280;23694;43.274;26.924;2023-05-12T06:40:15;99499.00;;;13.02;64.98
37856;BME280;23694;43.274;26.924;2023-05-12T06:42:42;99502.03;;;12.84;65.42
37856;BME280;23694;43.274;26.924;2023-05-12T06:45:09;99506.13;;;12.75;66.42
37856;BME280;23694;43.274;26.924;2023-05-12T06:47:37;99502.78;;;12.73;66.62
37856;BME280;23694;43.274;26.924;2023-05-12T06:50:04;99503.53;;;13.00;65.32
37856;BME280;23694;43.274;26.924;2023-05-12T06:52:30;99500.78;;;13.02;64.58
37856;BME280;23694;43.274;26.924;2023-05-12T06:54:56;99507.28;;;12.96;66.53
37856;BME280;23694;43.274;26.924;2023-05-12T06:57:22;99505.28;;;13.00;66.18
37856;BME280;23694;43.274;26.924;2023-05-12T06:59:48;99497.50;;;12.98;66.44
37856;BME280;23694;43.274;26.924;2023-05-12T07:02:14;99504.56;;;13.11;67.46
37856;BME280;23694;43.274;26.924;2023-05-12T07:04:41;99502.88;;;13.10;65.96
37856;BME280;23694;43.274;26.924;2023-05-12T07:07:07;99508.75;;;12.75;67.15
37856;BME280;23694;43.274;26.924;2023-05-12T07:09:33;99512.66;;;13.08;65.59
37856;BME280;23694;43.274;26.924;2023-05-12T07:11:59;99503.53;;;13.26;62.32
37856;BME280;23694;43.274;26.924;2023-05-12T07:14:26;99502.13;;;13.33;62.40
37856;BME280;23694;43.274;26.924;2023-05-12T07:16:52;99509.31;;;13.06;61.31
37856;BME280;23694;43.274;26.924;2023-05-12T07:19:18;99514.00;;;12.50;64.10
37856;BME280;23694;43.274;26.924;2023-05-12T07:21:44;99508.13;;;12.72;61.55
37856;BME280;23694;43.274;26.924;2023-05-12T07:24:10;99520.81;;;12.13;62.83
37856;BME280;23694;43.274;26.924;2023-05-12T07:26:36;99519.38;;;12.61;62.22
37856;BME280;23694;43.274;26.924;2023-05-12T07:29:02;99514.22;;;12.97;60.16
37856;BME280;23694;43.274;26.924;2023-05-12T07:31:30;99515.09;;;13.23;57.60
37856;BME280;23694;43.274;26.924;2023-05-12T07:33:56;99514.03;;;13.26;59.05
37856;BME280;23694;43.274;26.924;2023-05-12T07:36:22;99521.72;;;13.29;57.87
37856;BME280;23694;43.274;26.924;2023-05-12T07:38:48;99526.97;;;13.16;58.30
37856;BME280;23694;43.274;26.924;2023-05-12T07:41:14;99525.38;;;13.39;57.84
37856;BME280;23694;43.274;26.924;2023-05-12T07:43:40;99529.25;;;13.46;58.29
37856;BME280;23694;43.274;26.924;2023-05-12T07:46:06;99515.75;;;13.63;56.54
37856;BME280;23694;43.274;26.924;2023-05-12T07:48:32;99516.06;;;13.59;55.62
37856;BME280;23694;43.274;26.924;2023-05-12T07:51:05;99519.78;;;13.44;54.91
37856;BME280;23694;43.274;26.924;2023-05-12T07:53:31;99517.81;;;13.35;56.65
37856;BME280;23694;43.274;26.924;2023-05-12T07:55:57;99518.69;;;13.59;56.66
37856;BME280;23694;43.274;26.924;2023-05-12T07:58:24;99517.53;;;13.63;55.37
37856;BME280;23694;43.274;26.924;2023-05-12T08:00:50;99524.28;;;13.67;56.13
37856;BME280;23694;43.274;26.924;2023-05-12T08:03:16;99509.09;;;13.71;56.52
37856;BME280;23694;43.274;26.924;2023-05-12T08:05:42;99514.06;;;13.62;53.85
37856;BME280;23694;43.274;26.924;2023-05-12T08:08:08;99513.25;;;13.86;52.38
37856;BME280;23694;43.274;26.924;2023-05-12T08:10:44;99505.41;;;13.97;52.13
37856;BME280;23694;43.274;26.924;2023-05-12T08:13:10;99506.03;;;14.01;51.20
37856;BME280;23694;43.274;26.924;2023-05-12T08:15:36;99513.53;;;13.94;50.38
37856;BME280;23694;43.274;26.924;2023-05-12T08:18:02;99507.53;;;13.92;51.10
37856;BME280;23694;43.274;26.924;2023-05-12T08:20:28;99501.66;;;14.12;50.63
37856;BME280;23694;43.274;26.924;2023-05-12T08:22:56;99492.84;;;14.24;49.62
37856;BME280;23694;43.274;26.924;2023-05-12T08:25:22;99500.41;;;14.53;49.55
37856;BME280;23694;43.274;26.924;2023-05-12T08:27:48;99493.56;;;14.26;50.18
37856;BME280;23694;43.274;26.924;2023-05-12T08:30:14;99503.47;;;14.23;51.57
37856;BME280;23694;43.274;26.924;2023-05-12T08:32:40;99500.50;;;14.27;50.89
37856;BME280;23694;43.274;26.924;2023-05-12T08:35:07;99502.38;;;14.14;51.52
37856;BME280;23694;43.274;26.924;2023-05-12T08:37:33;99503.13;;;14.27;51.59
37856;BME280;23694;43.274;26.924;2023-05-12T08:39:59;99497.78;;;14.05;51.70
37856;BME280;23694;43.274;26.924;2023-05-12T08:42:50;99494.47;;;14.14;52.21
37856;BME280;23694;43.274;26.924;2023-05-12T08:45:20;99497.63;;;14.43;52.43
37856;BME280;23694;43.274;26.924;2023-05-12T08:47:49;99501.03;;;14.68;50.89
37856;BME280;23694;43.274;26.924;2023-05-12T08:50:16;99496.72;;;14.78;50.61
37856;BME280;23694;43.274;26.924;2023-05-12T08:52:45;99506.28;;;14.56;51.00
37856;BME280;23694;43.274;26.924;2023-05-12T08:55:12;99496.47;;;14.58;51.21
37856;BME280;23694;43.274;26.924;2023-05-12T08:57:39;99483.75;;;14.64;50.54
37856;BME280;23694;43.274;26.924;2023-05-12T09:00:08;99492.63;;;14.63;51.66
37856;BME280;23694;43.274;26.924;2023-05-12T09:02:36;99493.91;;;15.03;50.72
37856;BME280;23694;43.274;26.924;2023-05-12T09:05:04;99505.97;;;14.83;49.69
37856;BME280;23694;43.274;26.924;2023-05-12T09:07:30;99497.56;;;14.89;49.72
37856;BME280;23694;43.274;26.924;2023-05-12T09:09:57;99495.78;;;14.79;49.91
37856;BME280;23694;43.274;26.924;2023-05-12T09:12:30;99496.59;;;14.68;48.94
37856;BME280;23694;43.274;26.924;2023-05-12T09:15:03;99501.41;;;14.74;49.02
37856;BME280;23694;43.274;26.924;2023-05-12T09:17:29;99481.50;;;14.70;49.08
37856;BME280;23694;43.274;26.924;2023-05-12T09:19:55;99484.63;;;14.75;49.68
37856;BME280;23694;43.274;26.924;2023-05-12T09:22:31;99494.22;;;14.87;48.95
37856;BME280;23694;43.274;26.924;2023-05-12T09:24:59;99492.66;;;14.74;48.36
37856;BME280;23694;43.274;26.924;2023-05-12T09:27:29;99488.81;;;14.78;49.20
37856;BME280;23694;43.274;26.924;2023-05-12T09:29:55;99481.75;;;14.78;49.00
37856;BME280;23694;43.274;26.924;2023-05-12T09:32:34;99486.19;;;14.78;48.50
37856;BME280;23694;43.274;26.924;2023-05-12T09:35:02;99482.78;;;14.53;49.89
37856;BME280;23694;43.274;26.924;2023-05-12T09:37:30;99476.09;;;14.61;49.31
37856;BME280;23694;43.274;26.924;2023-05-12T09:40:06;99468.03;;;14.51;50.05
37856;BME280;23694;43.274;26.924;2023-05-12T09:42:33;99475.25;;;14.60;50.10
37856;BME280;23694;43.274;26.924;2023-05-12T09:45:06;99473.81;;;14.56;50.04
37856;BME280;23694;43.274;26.924;2023-05-12T09:47:38;99471.41;;;14.53;50.50
37856;BME280;23694;43.274;26.924;2023-05-12T09:50:06;99481.50;;;14.70;49.39
37856;BME280;23694;43.274;26.924;2023-05-12T09:52:41;99481.41;;;14.94;48.81
37856;BME280;23694;43.274;26.924;2023-05-12T09:55:09;99494.03;;;15.02;47.87
37856;BME280;23694;43.274;26.924;2023-05-12T09:57:40;99468.09;;;15.18;48.43
37856;BME280;23694;43.274;26.924;2023-05-12T10:00:08;99480.34;;;15.30;47.74
37856;BME280;23694;43.274;26.924;2023-05-12T10:02:38;99461.94;;;15.51;47.51
37856;BME280;23694;43.274;26.924;2023-05-12T10:05:10;99468.06;;;15.40;46.51
37856;BME280;23694;43.274;26.924;2023-05-12T10:07:39;99465.94;;;15.23;47.64
37856;BME280;23694;43.274;26.924;2023-05-12T10:10:06;99472.66;;;14.94;48.87
37856;BME280;23694;43.274;26.924;2023-05-12T10:12:33;99473.41;;;14.96;49.26
37856;BME280;23694;43.274;26.924;2023-05-12T10:15:02;99471.00;;;15.04;48.29
37856;BME280;23694;43.274;26.924;2023-05-12T10:17:28;99463.91;;;15.27;47.44
37856;BME280;23694;43.274;26.924;2023-05-12T10:19:57;99466.88;;;15.33;45.59
37856;BME280;23694;43.274;26.924;2023-05-12T10:22:23;99452.59;;;15.47;44.29
37856;BME280;23694;43.274;26.924;2023-05-12T10:24:50;99464.31;;;15.76;44.51
37856;BME280;23694;43.274;26.924;2023-05-12T10:27:17;99454.88;;;15.63;45.98
37856;BME280;23694;43.274;26.924;2023-05-12T10:29:44;99452.94;;;15.53;47.13
37856;BME280;23694;43.274;26.924;2023-05-12T10:32:11;99468.09;;;15.29;47.60
37856;BME280;23694;43.274;26.924;2023-05-12T10:34:39;99459.94;;;15.21;46.53
37856;BME280;23694;43.274;26.924;2023-05-12T10:37:09;99454.78;;;15.19;46.83
37856;BME280;23694;43.274;26.924;2023-05-12T10:39:48;99462.22;;;15.14;47.16
37856;BME280;23694;43.274;26.924;2023-05-12T10:42:19;99455.75;;;15.30;46.32
37856;BME280;23694;43.274;26.924;2023-05-12T10:44:54;99454.53;;;15.34;46.01
37856;BME280;23694;43.274;26.924;2023-05-12T10:47:36;99449.34;;;15.66;44.97
37856;BME280;23694;43.274;26.924;2023-05-12T10:50:02;99458.78;;;15.79;42.47
37856;BME280;23694;43.274;26.924;2023-05-12T10:52:28;99467.81;;;15.77;42.69
37856;BME280;23694;43.274;26.924;2023-05-12T10:55:02;99467.66;;;15.90;42.14
37856;BME280;23694;43.274;26.924;2023-05-12T10:57:28;99445.81;;;16.08;42.54
37856;BME280;23694;43.274;26.924;2023-05-12T10:59:56;99452.25;;;15.95;42.71
37856;BME280;23694;43.274;26.924;2023-05-12T11:02:27;99448.28;;;16.21;41.81
37856;BME280;23694;43.274;26.924;2023-05-12T11:04:58;99446.59;;;15.99;40.19
37856;BME280;23694;43.274;26.924;2023-05-12T11:07:26;99444.25;;;15.85;40.70
37856;BME280;23694;43.274;26.924;2023-05-12T11:09:54;99444.13;;;15.87;40.35
37856;BME280;23694;43.274;26.924;2023-05-12T11:12:21;99454.22;;;15.81;40.77
37856;BME280;23694;43.274;26.924;2023-05-12T11:14:47;99454.34;;;15.80;39.65
37856;BME280;23694;43.274;26.924;2023-05-12T11:17:14;99447.41;;;15.79;39.72
37856;BME280;23694;43.274;26.924;2023-05-12T11:19:45;99453.47;;;15.91;38.27
37856;BME280;23694;43.274;26.924;2023-05-12T11:22:17;99443.78;;;15.80;38.21
37856;BME280;23694;43.274;26.924;2023-05-12T11:24:44;99448.28;;;15.68;38.53
37856;BME280;23694;43.274;26.924;2023-05-12T11:27:13;99446.13;;;15.62;38.48
37856;BME280;23694;43.274;26.924;2023-05-12T11:29:40;99442.75;;;15.71;38.63
37856;BME280;23694;43.274;26.924;2023-05-12T11:32:10;99439.25;;;15.71;38.63
37856;BME280;23694;43.274;26.924;2023-05-12T11:34:37;99437.53;;;15.81;38.50
37856;BME280;23694;43.274;26.924;2023-05-12T11:37:04;99437.03;;;15.33;39.53
37856;BME280;23694;43.274;26.924;2023-05-12T11:39:32;99453.44;;;15.70;37.99
37856;BME280;23694;43.274;26.924;2023-05-12T11:42:02;99442.63;;;15.73;38.11
37856;BME280;23694;43.274;26.924;2023-05-12T11:44:29;99442.75;;;15.71;38.47
37856;BME280;23694;43.274;26.924;2023-05-12T11:46:56;99434.59;;;15.41;39.03
37856;BME280;23694;43.274;26.924;2023-05-12T11:49:22;99436.63;;;15.48;38.31
37856;BME280;23694;43.274;26.924;2023-05-12T11:51:53;99442.38;;;15.53;37.89
37856;BME280;23694;43.274;26.924;2023-05-12T11:54:20;99439.81;;;15.85;37.39
37856;BME280;23694;43.274;26.924;2023-05-12T11:56:50;99438.22;;;15.62;38.15
37856;BME280;23694;43.274;26.924;2023-05-12T11:59:30;99438.72;;;15.88;38.05
37856;BME280;23694;43.274;26.924;2023-05-12T12:02:00;99457.38;;;15.75;38.43
37856;BME280;23694;43.274;26.924;2023-05-12T12:06:59;99453.38;;;15.81;39.56
37856;BME280;23694;43.274;26.924;2023-05-12T12:09:44;99435.81;;;15.91;38.34
37856;BME280;23694;43.274;26.924;2023-05-12T12:12:10;99451.88;;;15.67;37.89
37856;BME280;23694;43.274;26.924;2023-05-12T12:14:37;99437.38;;;15.94;38.22
37856;BME280;23694;43.274;26.924;2023-05-12T12:17:04;99444.34;;;16.15;37.42
37856;BME280;23694;43.274;26.924;2023-05-12T12:19:30;99453.03;;;16.06;37.70
37856;BME280;23694;43.274;26.924;2023-05-12T12:21:56;99448.97;;;15.70;38.21
37856;BME280;23694;43.274;26.924;2023-05-12T12:24:23;99447.41;;;15.79;37.51
37856;BME280;23694;43.274;26.924;2023-05-12T12:26:50;99443.06;;;15.78;37.75
37856;BME280;23694;43.274;26.924;2023-05-12T12:29:16;99438.53;;;16.01;37.40
37856;BME280;23694;43.274;26.924;2023-05-12T12:31:43;99457.22;;;16.09;37.51
37856;BME280;23694;43.274;26.924;2023-05-12T12:34:09;99455.56;;;15.76;38.53
37856;BME280;23694;43.274;26.924;2023-05-12T12:36:36;99453.34;;;15.27;39.03
37856;BME280;23694;43.274;26.924;2023-05-12T12:39:02;99444.72;;;15.25;38.96
37856;BME280;23694;43.274;26.924;2023-05-12T12:41:29;99446.84;;;15.64;38.68
37856;BME280;23694;43.274;26.924;2023-05-12T12:43:55;99445.50;;;15.59;38.60
37856;BME280;23694;43.274;26.924;2023-05-12T12:46:21;99446.16;;;15.17;38.80
37856;BME280;23694;43.274;26.924;2023-05-12T12:48:47;99442.94;;;15.03;39.31
37856;BME280;23694;43.274;26.924;2023-05-12T12:51:13;99446.38;;;15.37;38.62
37856;BME280;23694;43.274;26.924;2023-05-12T12:53:39;99427.72;;;15.06;38.87
37856;BME280;23694;43.274;26.924;2023-05-12T12:56:08;99437.22;;;15.52;38.54